Time;durP1;ratioP1;P1;durP2;ratioP2;P2;SDS_P1;SDS_P2;PMS_P1;PMS_P2;Temp;Humidity;BMP_temperature;BMP_pressure;BME280_temperature;BME280_humidity;BME280_pressure;Samples;Min_cycle;Max_cycle;Signal;HPM_P1;HPM_P2
2022/05/29 00:00:19;;;;;;;8.00;1.90;;;;;;;7.70;100.00;101872.97;5265835;28;20031;-69
2022/05/29 00:02:50;;;;;;;13.13;2.55;;;;;;;7.60;100.00;101874.69;5279516;28;20020;-69
2022/05/29 00:05:20;;;;;;;11.13;2.72;;;;;;;7.49;100.00;101879.06;5278717;28;20095;-69
2022/05/29 00:07:51;;;;;;;6.85;2.08;;;;;;;7.48;100.00;101874.69;5279774;28;20061;-69
2022/05/29 00:10:22;;;;;;;12.45;2.42;;;;;;;7.58;100.00;101879.28;5266614;28;20016;-69
2022/05/29 00:12:53;;;;;;;21.38;2.85;;;;;;;7.71;100.00;101872.84;5286896;28;20098;-69
2022/05/29 00:15:23;;;;;;;12.82;2.58;;;;;;;7.73;100.00;101867.38;5286452;28;20111;-69
2022/05/29 00:17:54;;;;;;;9.65;2.38;;;;;;;7.74;100.00;101872.63;5268279;28;20031;-69
2022/05/29 00:20:24;;;;;;;7.63;2.35;;;;;;;7.75;100.00;101866.28;5282134;28;20054;-69
2022/05/29 00:22:55;;;;;;;10.25;2.58;;;;;;;7.79;100.00;101867.75;5274792;28;20027;-68
2022/05/29 00:25:25;;;;;;;9.60;2.30;;;;;;;7.80;100.00;101865.94;5283555;28;20546;-69
2022/05/29 00:27:55;;;;;;;11.93;2.63;;;;;;;7.82;100.00;101866.63;5272714;28;20477;-68
2022/05/29 00:30:26;;;;;;;8.18;2.42;;;;;;;7.83;100.00;101860.34;5286331;28;20081;-70
2022/05/29 00:32:56;;;;;;;13.20;2.58;;;;;;;7.87;100.00;101853.75;5282240;28;20026;-70
2022/05/29 00:35:28;;;;;;;22.80;3.80;;;;;;;7.88;100.00;101855.47;5275939;28;20115;-70
2022/05/29 00:37:59;;;;;;;10.63;2.40;;;;;;;7.87;100.00;101853.75;5286091;28;20370;-69
2022/05/29 00:40:49;;;;;;;15.60;2.60;;;;;;;7.83;100.00;101852.34;5273722;28;20485;-69
2022/05/29 00:43:20;;;;;;;12.32;3.20;;;;;;;7.78;100.00;101855.38;5268397;28;20481;-69
2022/05/29 00:45:58;;;;;;;12.50;2.58;;;;;;;7.73;100.00;101851.34;5281168;28;20035;-69
2022/05/29 00:48:29;;;;;;;11.85;2.50;;;;;;;7.62;100.00;101851.38;5286084;28;20030;-70
2022/05/29 00:51:04;;;;;;;9.55;2.35;;;;;;;7.52;100.00;101843.22;5266948;28;20489;-69
2022/05/29 00:53:34;;;;;;;8.65;2.50;;;;;;;7.44;100.00;101838.53;5277842;28;20023;-69
2022/05/29 00:56:09;;;;;;;13.98;2.63;;;;;;;7.35;100.00;101841.06;5285581;28;20574;-69
2022/05/29 00:58:39;;;;;;;10.88;2.35;;;;;;;7.20;100.00;101833.28;5285648;28;20365;-69
2022/05/29 01:01:11;;;;;;;6.68;2.67;;;;;;;7.09;100.00;101838.63;5286734;28;20031;-69
2022/05/29 01:03:41;;;;;;;11.00;2.92;;;;;;;6.97;100.00;101832.41;5286180;28;20019;-69
2022/05/29 01:06:12;;;;;;;12.30;2.83;;;;;;;6.85;100.00;101825.34;5285291;28;20027;-69
2022/05/29 01:08:42;;;;;;;7.68;3.08;;;;;;;6.76;100.00;101828.72;5285850;28;20316;-69
2022/05/29 01:11:39;;;;;;;9.43;3.03;;;;;;;6.67;100.00;101824.09;5285523;28;20023;-70
2022/05/29 01:14:47;;;;;;;11.07;3.25;;;;;;;6.59;100.00;101832.69;5273271;28;20034;-70
2022/05/29 01:17:19;;;;;;;7.70;2.85;;;;;;;6.54;100.00;101823.34;5280133;28;20019;-69
2022/05/29 01:20:27;;;;;;;14.30;3.10;;;;;;;6.46;100.00;101816.75;5285768;27;20400;-69
2022/05/29 01:23:24;;;;;;;13.60;3.05;;;;;;;6.36;100.00;101821.09;5271312;28;20031;-71
2022/05/29 01:26:24;;;;;;;11.23;3.35;;;;;;;6.23;100.00;101807.00;5285443;28;20488;-69
2022/05/29 01:29:17;;;;;;;8.15;3.45;;;;;;;6.06;100.00;101800.25;5274795;28;20035;-70
2022/05/29 01:31:52;;;;;;;12.05;3.85;;;;;;;5.91;100.00;101810.22;5285526;28;20023;-69
2022/05/29 01:34:31;;;;;;;16.60;4.07;;;;;;;5.82;100.00;101813.50;5286924;28;20024;-69
2022/05/29 01:37:20;;;;;;;20.42;4.53;;;;;;;5.78;100.00;101809.41;5290364;28;20039;-69
2022/05/29 01:40:03;;;;;;;9.15;3.47;;;;;;;5.76;100.00;101811.31;5289897;28;20012;-70
2022/05/29 01:42:45;;;;;;;20.33;3.88;;;;;;;5.71;100.00;101808.13;5289733;28;20028;-69
2022/05/29 01:45:34;;;;;;;7.30;3.22;;;;;;;5.66;100.00;101804.94;5289441;27;20026;-70
2022/05/29 01:48:14;;;;;;;13.95;3.78;;;;;;;5.59;100.00;101801.88;5289808;28;20548;-69
2022/05/29 01:50:52;;;;;;;15.35;4.18;;;;;;;5.55;100.00;101799.56;5272879;28;20024;-69
2022/05/29 01:53:31;;;;;;;13.48;4.40;;;;;;;5.49;100.00;101792.88;5286502;27;20515;-69
2022/05/29 01:56:10;;;;;;;11.90;3.95;;;;;;;5.45;100.00;101794.88;5288725;27;20084;-69
2022/05/29 01:58:49;;;;;;;12.68;4.97;;;;;;;5.46;100.00;101795.72;5289491;28;20051;-69
2022/05/29 02:01:22;;;;;;;15.00;5.43;;;;;;;5.49;100.00;101795.53;5278907;28;20012;-69
2022/05/29 02:03:56;;;;;;;24.23;5.32;;;;;;;5.54;100.00;101789.88;5273030;28;20024;-69
2022/05/29 02:07:47;;;;;;;19.10;5.60;;;;;;;5.58;100.00;101794.03;5289166;27;20027;-70
2022/05/29 02:09:34;;;;;;;12.50;4.63;;;;;;;5.60;100.00;101794.75;5289475;28;20028;-69
2022/05/29 02:12:10;;;;;;;16.08;5.38;;;;;;;5.59;100.00;101787.72;5289119;28;20119;-70
2022/05/29 02:14:50;;;;;;;14.82;5.38;;;;;;;5.60;100.00;101792.94;5289600;28;20050;-69
2022/05/29 02:17:25;;;;;;;12.13;4.47;;;;;;;5.63;100.00;101798.03;5276357;28;20030;-69
2022/05/29 02:20:03;;;;;;;11.10;4.43;;;;;;;5.65;100.00;101796.09;5286359;28;20055;-69
2022/05/29 02:22:35;;;;;;;12.73;4.60;;;;;;;5.67;100.00;101790.66;5279631;28;20027;-69
2022/05/29 02:25:12;;;;;;;7.65;3.88;;;;;;;5.62;100.00;101788.38;5288776;28;20026;-69
2022/05/29 02:28:05;;;;;;;11.80;4.68;;;;;;;5.58;100.00;101786.88;5274724;28;20023;-69
2022/05/29 02:30:56;;;;;;;10.30;4.60;;;;;;;5.54;100.00;101785.41;5288825;28;20031;-70
2022/05/29 02:33:38;;;;;;;10.35;4.65;;;;;;;5.50;100.00;101788.38;5279308;28;20548;-69
2022/05/29 02:39:30;;;;;;;10.90;4.78;;;;;;;5.40;100.00;101785.53;5288777;28;20354;-69
2022/05/29 02:42:16;;;;;;;9.82;3.97;;;;;;;5.36;100.00;101784.03;5288324;28;20156;-69
2022/05/29 02:44:59;;;;;;;10.57;3.90;;;;;;;5.32;100.00;101774.56;5288458;28;20023;-69
2022/05/29 02:48:01;;;;;;;15.30;4.03;;;;;;;5.27;100.00;101772.28;5288231;28;20080;-70
2022/05/29 02:50:42;;;;;;;9.18;4.10;;;;;;;5.23;100.00;101781.44;5287946;28;20088;-70
2022/05/29 02:53:14;;;;;;;14.85;3.95;;;;;;;5.18;100.00;101772.91;5288594;28;20435;-69
2022/05/29 02:55:45;;;;;;;12.75;4.95;;;;;;;5.16;100.00;101770.34;5274800;28;20032;-69
2022/05/29 02:58:24;;;;;;;18.00;5.38;;;;;;;5.13;100.00;101767.06;5277492;28;20563;-69
2022/05/29 03:01:14;;;;;;;9.73;3.95;;;;;;;5.04;100.00;101765.91;5286402;28;20024;-70
2022/05/29 03:03:44;;;;;;;10.77;4.72;;;;;;;5.05;100.00;101766.75;5272417;28;20436;-69
2022/05/29 03:06:51;;;;;;;12.18;4.65;;;;;;;4.95;100.00;101763.88;5267691;28;20040;-69
2022/05/29 03:09:39;;;;;;;8.75;3.97;;;;;;;4.90;100.00;101764.22;5267298;28;20035;-69
2022/05/29 03:12:23;;;;;;;11.70;4.75;;;;;;;4.84;100.00;101764.63;5266840;28;20134;-69
2022/05/29 03:15:31;;;;;;;9.63;4.05;;;;;;;4.79;100.00;101761.44;5267279;28;20027;-70
2022/05/29 03:18:32;;;;;;;12.10;4.85;;;;;;;4.73;100.00;101772.53;5266841;28;20034;-69
2022/05/29 03:21:09;;;;;;;12.07;3.53;;;;;;;4.70;100.00;101766.56;5274807;28;20545;-69
2022/05/29 03:24:08;;;;;;;8.80;3.78;;;;;;;4.71;100.00;101769.09;5285071;28;20144;-68
2022/05/29 03:26:59;;;;;;;7.65;3.83;;;;;;;4.75;100.00;101767.09;5282755;28;20105;-70
2022/05/29 03:29:38;;;;;;;11.90;5.07;;;;;;;4.73;100.00;101759.22;5268575;28;20024;-70
2022/05/29 03:32:09;;;;;;;9.77;3.75;;;;;;;4.72;100.00;101762.84;5277750;28;20028;-71
2022/05/29 03:34:40;;;;;;;7.70;3.33;;;;;;;4.64;100.00;101755.38;5287797;28;20028;-70
2022/05/29 03:37:10;;;;;;;13.88;4.63;;;;;;;4.61;100.00;101762.72;5286691;28;20227;-71
2022/05/29 03:39:41;;;;;;;16.38;6.85;;;;;;;4.55;100.00;101760.47;5288290;28;20041;-70
2022/05/29 03:42:12;;;;;;;11.02;4.93;;;;;;;4.51;100.00;101757.19;5288029;28;20023;-69
2022/05/29 03:44:43;;;;;;;14.52;4.60;;;;;;;4.50;100.00;101759.94;5287008;28;20504;-69
2022/05/29 03:47:13;;;;;;;16.27;5.40;;;;;;;4.49;100.00;101748.47;5287210;28;20102;-69
2022/05/29 03:49:44;;;;;;;11.77;4.40;;;;;;;4.50;100.00;101746.66;5287547;28;20027;-69
2022/05/29 03:52:15;;;;;;;11.43;5.28;;;;;;;4.48;100.00;101748.59;5287121;28;20054;-70
2022/05/29 03:54:45;;;;;;;9.90;4.60;;;;;;;4.48;100.00;101748.59;5287621;28;20102;-71
2022/05/29 03:57:16;;;;;;;23.75;5.10;;;;;;;4.53;100.00;101741.16;5286191;28;20047;-68
2022/05/29 03:59:47;;;;;;;13.00;4.60;;;;;;;4.48;100.00;101740.63;5276975;28;20268;-68
2022/05/29 04:02:17;;;;;;;11.45;4.70;;;;;;;4.50;100.00;101728.91;5284259;28;20024;-67
2022/05/29 04:04:48;;;;;;;14.55;4.72;;;;;;;4.55;100.00;101736.56;5275602;28;20509;-68
2022/05/29 04:07:18;;;;;;;9.32;4.70;;;;;;;4.52;100.00;101731.44;5265846;28;20058;-69
2022/05/29 04:12:38;;;;;;;10.23;4.50;;;;;;;4.56;100.00;101731.13;5287194;28;20024;-69
2022/05/29 04:15:09;;;;;;;11.95;4.80;;;;;;;4.54;100.00;101725.09;5286578;28;20404;-69
2022/05/29 04:17:39;;;;;;;11.13;4.50;;;;;;;4.52;100.00;101720.81;5270693;28;20031;-69
2022/05/29 04:20:10;;;;;;;12.77;4.78;;;;;;;4.51;100.00;101721.78;5279371;28;20020;-69
2022/05/29 04:22:40;;;;;;;10.80;5.15;;;;;;;4.51;100.00;101725.28;5277524;28;20392;-69
2022/05/29 04:25:11;;;;;;;17.38;6.03;;;;;;;4.54;100.00;101732.22;5286388;28;20030;-69
2022/05/29 04:27:41;;;;;;;13.85;4.90;;;;;;;4.57;100.00;101722.22;5273152;27;20020;-69
2022/05/29 04:30:12;;;;;;;9.77;4.72;;;;;;;4.61;100.00;101726.34;5286441;28;20034;-69
2022/05/29 04:33:04;;;;;;;10.55;5.32;;;;;;;4.67;100.00;101719.78;5286422;28;20024;-69
2022/05/29 04:35:53;;;;;;;16.08;5.93;;;;;;;4.77;100.00;101723.50;5286610;28;20364;-69
2022/05/29 04:38:25;;;;;;;15.70;5.43;;;;;;;4.87;100.00;101724.56;5278691;27;20031;-69
2022/05/29 04:40:57;;;;;;;12.77;5.35;;;;;;;4.96;100.00;101715.06;5266843;28;20023;-69
2022/05/29 04:43:27;;;;;;;12.35;5.90;;;;;;;5.05;100.00;101714.41;5286331;28;20023;-68
2022/05/29 04:45:58;;;;;;;11.07;6.13;;;;;;;5.12;100.00;101718.34;5272497;28;20046;-68
2022/05/29 04:48:29;;;;;;;12.68;5.00;;;;;;;5.20;100.00;101720.44;5286068;28;20027;-67
2022/05/29 04:51:02;;;;;;;9.52;4.28;;;;;;;5.27;100.00;101713.75;5286163;28;20051;-67
2022/05/29 04:53:33;;;;;;;12.77;4.82;;;;;;;5.36;100.00;101714.84;5286173;28;20485;-67
2022/05/29 04:56:04;;;;;;;11.10;5.18;;;;;;;5.38;100.00;101711.16;5286088;28;20024;-67
2022/05/29 04:58:34;;;;;;;12.23;5.78;;;;;;;5.39;100.00;101709.31;5286146;28;20051;-68
2022/05/29 05:01:05;;;;;;;10.80;5.05;;;;;;;5.41;100.00;101707.38;5286306;28;20027;-67
2022/05/29 05:03:35;;;;;;;8.75;5.00;;;;;;;5.41;100.00;101708.25;5285933;28;20024;-68
2022/05/29 05:06:06;;;;;;;10.20;4.35;;;;;;;5.45;100.00;101711.53;5285785;28;20032;-67
2022/05/29 05:08:36;;;;;;;20.73;5.05;;;;;;;5.53;100.00;101703.00;5284609;28;20287;-67
2022/05/29 05:11:07;;;;;;;19.45;5.85;;;;;;;5.68;100.00;101705.38;5286159;28;20023;-67
2022/05/29 05:13:37;;;;;;;16.20;7.15;;;;;;;5.90;100.00;101709.09;5282692;28;20032;-67
2022/05/29 05:16:08;;;;;;;14.88;6.50;;;;;;;6.12;100.00;101709.19;5271829;28;20020;-67
2022/05/29 05:18:38;;;;;;;15.10;6.80;;;;;;;6.33;100.00;101701.41;5269984;28;20386;-67
2022/05/29 05:21:09;;;;;;;20.63;7.40;;;;;;;6.57;100.00;101705.78;5285689;28;20024;-68
2022/05/29 05:23:40;;;;;;;12.70;7.50;;;;;;;6.78;100.00;101698.78;5286270;28;20073;-67
2022/05/29 05:26:12;;;;;;;18.58;7.78;;;;;;;6.98;100.00;101702.56;5278359;28;20016;-67
2022/05/29 05:28:43;;;;;;;21.05;7.55;;;;;;;7.19;100.00;101698.16;5275631;28;20054;-67
2022/05/29 05:31:15;;;;;;;16.98;7.60;;;;;;;7.41;100.00;101702.59;5280124;28;20063;-67
2022/05/29 05:33:45;;;;;;;13.93;7.63;;;;;;;7.70;100.00;101710.91;5285266;28;20020;-68
2022/05/29 05:36:16;;;;;;;14.70;6.88;;;;;;;8.11;100.00;101703.06;5284341;28;20023;-67
2022/05/29 05:38:47;;;;;;;14.68;6.43;;;;;;;8.50;100.00;101702.38;5273612;28;20393;-68
2022/05/29 05:41:17;;;;;;;21.15;6.80;;;;;;;8.86;100.00;101694.81;5268843;28;20019;-68
2022/05/29 05:43:48;;;;;;;10.95;5.68;;;;;;;9.27;100.00;101701.00;5285046;28;20743;-68
2022/05/29 05:46:19;;;;;;;17.30;5.50;;;;;;;9.66;100.00;101703.78;5284301;28;20030;-68
2022/05/29 05:48:49;;;;;;;12.15;5.00;;;;;;;9.89;100.00;101693.63;5284348;28;20469;-68
2022/05/29 05:51:20;;;;;;;11.07;5.28;;;;;;;10.05;100.00;101692.06;5284469;28;20092;-68
2022/05/29 05:53:50;;;;;;;7.43;4.28;;;;;;;10.27;100.00;101690.09;5282749;28;20030;-68
2022/05/29 05:56:21;;;;;;;12.18;4.40;;;;;;;10.44;100.00;101686.69;5272087;28;20027;-68
2022/05/29 05:58:51;;;;;;;12.57;4.30;;;;;;;10.60;100.00;101692.28;5284432;28;20469;-68
2022/05/29 06:01:21;;;;;;;8.70;4.22;;;;;;;10.73;100.00;101683.91;5274479;28;20111;-67
2022/05/29 06:03:52;;;;;;;12.98;4.15;;;;;;;10.85;100.00;101687.25;5281326;28;20027;-68
2022/05/29 06:06:22;;;;;;;6.88;3.92;;;;;;;11.02;100.00;101691.84;5283831;28;20031;-68
2022/05/29 06:08:53;;;;;;;21.80;5.43;;;;;;;11.06;100.00;101687.88;5278893;28;20023;-68
2022/05/29 06:11:26;;;;;;;9.10;4.40;;;;;;;11.14;100.00;101696.03;5276027;28;20016;-68
2022/05/29 06:13:56;;;;;;;9.43;3.63;;;;;;;11.18;100.00;101687.66;5270951;28;20400;-68
2022/05/29 06:16:27;;;;;;;15.10;4.70;;;;;;;11.48;100.00;101694.53;5277635;28;20031;-68
2022/05/29 06:18:57;;;;;;;14.48;4.15;;;;;;;11.68;100.00;101693.41;5275480;28;20032;-68
2022/05/29 06:21:28;;;;;;;16.02;4.00;;;;;;;12.03;100.00;101692.59;5265189;28;20011;-68
2022/05/29 06:23:58;;;;;;;6.63;3.42;;;;;;;12.48;100.00;101691.59;5276756;28;20043;-68
2022/05/29 06:26:29;;;;;;;12.55;3.90;;;;;;;12.65;100.00;101698.78;5284825;28;20039;-68
2022/05/29 06:28:59;;;;;;;12.40;3.47;;;;;;;12.53;100.00;101700.03;5277898;28;20502;-68
2022/05/29 06:31:30;;;;;;;9.88;3.03;;;;;;;12.35;100.00;101691.16;5287789;27;20054;-68
2022/05/29 06:34:01;;;;;;;8.43;3.28;;;;;;;12.01;100.00;101697.28;5276273;28;20523;-68
2022/05/29 06:36:31;;;;;;;8.40;3.20;;;;;;;11.91;100.00;101694.69;5286231;28;20100;-68
2022/05/29 06:39:02;;;;;;;12.73;3.25;;;;;;;11.68;100.00;101696.94;5287770;28;20016;-68
2022/05/29 06:41:34;;;;;;;10.30;2.72;;;;;;;11.57;100.00;101691.78;5287617;28;20034;-68
2022/05/29 06:44:07;;;;;;;7.95;2.92;;;;;;;11.63;100.00;101696.56;5287994;28;20027;-68
2022/05/29 06:46:37;;;;;;;8.15;2.78;;;;;;;11.70;100.00;101693.25;5288281;28;20031;-68
2022/05/29 06:49:08;;;;;;;8.35;2.80;;;;;;;11.73;100.00;101695.66;5280459;28;20016;-68
2022/05/29 06:51:38;;;;;;;10.30;2.58;;;;;;;11.57;100.00;101693.66;5287932;28;20027;-68
2022/05/29 06:54:09;;;;;;;8.00;2.35;;;;;;;11.44;100.00;101694.00;5286777;28;20015;-68
2022/05/29 06:56:39;;;;;;;7.28;2.35;;;;;;;11.50;100.00;101703.31;5288272;28;20054;-68
2022/05/29 06:59:10;;;;;;;12.05;2.63;;;;;;;11.54;100.00;101700.16;5287213;28;20106;-68
2022/05/29 07:07:18;;;;;;;14.40;2.78;;;;;;;11.86;100.00;101696.16;5287451;28;20032;-69
2022/05/29 07:09:49;;;;;;;8.75;2.38;;;;;;;11.82;100.00;101698.28;5287047;28;20072;-68
2022/05/29 07:12:35;;;;;;;7.25;2.60;;;;;;;11.66;100.00;101701.63;5287039;28;20461;-68
2022/05/29 07:15:06;;;;;;;6.63;2.05;;;;;;;11.67;100.00;101702.47;5286679;28;20432;-68
2022/05/29 07:17:37;;;;;;;9.25;2.33;;;;;;;11.63;100.00;101701.09;5271929;28;20020;-68
2022/05/29 07:20:08;;;;;;;7.25;1.80;;;;;;;11.79;100.00;101703.94;5282397;28;20031;-68
2022/05/29 07:22:40;;;;;;;12.60;2.30;;;;;;;11.91;100.00;101700.06;5285354;28;20477;-68
2022/05/29 07:25:12;;;;;;;8.93;1.50;;;;;;;11.92;100.00;101699.06;5286793;28;20027;-68
2022/05/29 07:27:42;;;;;;;6.93;1.73;;;;;;;11.85;100.00;101700.69;5272623;28;20507;-68
2022/05/29 07:30:13;;;;;;;7.28;1.88;;;;;;;11.87;100.00;101708.59;5286469;28;20023;-68
2022/05/29 07:32:44;;;;;;;5.97;1.58;;;;;;;12.00;100.00;101709.06;5284551;28;20023;-68
2022/05/29 07:35:16;;;;;;;6.40;1.40;;;;;;;12.09;100.00;101707.25;5274778;28;20055;-68
2022/05/29 07:37:47;;;;;;;3.47;1.13;;;;;;;12.35;100.00;101701.91;5285772;28;20028;-68
2022/05/29 07:40:17;;;;;;;5.53;1.50;;;;;;;12.37;100.00;101702.63;5285844;28;20016;-68
2022/05/29 07:45:37;;;;;;;6.22;1.40;;;;;;;12.14;100.00;101695.03;5286079;28;20469;-68
2022/05/29 07:48:08;;;;;;;5.57;1.20;;;;;;;12.15;100.00;101709.34;5286112;28;20037;-68
2022/05/29 07:50:39;;;;;;;3.33;1.27;;;;;;;12.19;100.00;101698.09;5285875;28;20038;-68
2022/05/29 07:53:09;;;;;;;8.00;1.80;;;;;;;12.12;100.00;101706.97;5286341;28;20483;-68
2022/05/29 07:55:41;;;;;;;4.82;1.40;;;;;;;12.15;100.00;101698.59;5284789;28;20486;-68
2022/05/29 07:58:14;;;;;;;3.50;1.10;;;;;;;12.04;100.00;101704.19;5285708;28;20023;-68
2022/05/29 08:00:44;;;;;;;3.45;1.10;;;;;;;11.81;100.00;101704.63;5285092;28;20011;-68
2022/05/29 08:03:15;;;;;;;2.25;1.20;;;;;;;11.62;100.00;101692.19;5285894;28;20031;-68
2022/05/29 08:05:45;;;;;;;2.85;1.40;;;;;;;11.36;100.00;101691.25;5285444;27;20028;-69
2022/05/29 08:08:16;;;;;;;4.20;1.38;;;;;;;11.18;100.00;101698.41;5284318;28;20528;-69
2022/05/29 08:10:46;;;;;;;5.65;1.80;;;;;;;11.13;100.00;101699.69;5285989;27;20065;-68
2022/05/29 08:13:17;;;;;;;9.45;1.33;;;;;;;11.29;100.00;101690.13;5285361;28;20076;-68
2022/05/29 08:15:48;;;;;;;3.80;1.50;;;;;;;11.45;100.00;101694.88;5276157;28;20470;-68
2022/05/29 08:18:19;;;;;;;4.45;1.90;;;;;;;11.61;100.00;101690.50;5281066;28;20542;-68
2022/05/29 08:20:51;;;;;;;4.72;1.70;;;;;;;12.06;100.00;101686.91;5274845;27;20053;-68
2022/05/29 08:23:22;;;;;;;7.13;1.40;;;;;;;12.37;100.00;101683.78;5282735;28;20023;-68
2022/05/29 08:30:37;;;;;;;7.35;1.50;;;;;;;12.80;100.00;101685.56;5272807;28;20058;-68
2022/05/29 08:31:33;;;;;;;3.22;1.60;;;;;;;13.34;100.00;101682.59;5285065;28;20114;-68
2022/05/29 08:34:04;;;;;;;7.13;1.55;;;;;;;13.74;100.00;101677.28;5277438;27;20541;-68
2022/05/29 08:36:35;;;;;;;5.35;1.27;;;;;;;13.88;100.00;101675.78;5283931;28;20039;-68
2022/05/29 08:39:06;;;;;;;3.30;1.23;;;;;;;14.20;100.00;101679.50;5284878;28;20022;-68
2022/05/29 08:41:56;;;;;;;3.67;1.20;;;;;;;14.37;100.00;101674.94;5285061;28;20469;-68
2022/05/29 08:44:33;;;;;;;9.52;1.48;;;;;;;14.65;100.00;101676.25;5283665;27;20583;-68
2022/05/29 08:47:04;;;;;;;6.35;1.95;;;;;;;15.49;100.00;101673.84;5285231;28;20023;-69
2022/05/29 08:49:40;;;;;;;8.55;1.75;;;;;;;17.21;100.00;101665.81;5277760;28;20032;-68
2022/05/29 08:52:19;;;;;;;3.38;1.15;;;;;;;18.10;100.00;101668.22;5264035;28;20054;-69
2022/05/29 08:55:11;;;;;;;1.45;0.90;;;;;;;17.71;97.14;101669.50;5284973;27;20484;-69
2022/05/29 08:58:04;;;;;;;6.53;1.40;;;;;;;16.94;100.00;101666.50;5284870;28;20027;-69
2022/05/29 09:00:54;;;;;;;6.70;1.33;;;;;;;16.28;100.00;101666.34;5284348;28;20016;-68
2022/05/29 09:03:43;;;;;;;4.43;1.23;;;;;;;15.59;100.00;101660.09;5284129;28;20408;-68
2022/05/29 09:06:18;;;;;;;5.80;1.42;;;;;;;15.19;100.00;101660.16;5284337;28;20526;-68
2022/05/29 09:08:57;;;;;;;7.07;1.35;;;;;;;14.95;100.00;101655.72;5284421;28;20030;-68
2022/05/29 09:11:33;;;;;;;3.20;1.20;;;;;;;14.67;100.00;101649.94;5284172;28;20023;-68
2022/05/29 09:14:35;;;;;;;4.50;1.13;;;;;;;14.03;100.00;101646.28;5284517;28;20028;-69
2022/05/29 09:17:31;;;;;;;5.18;1.20;;;;;;;13.39;100.00;101642.53;5273119;28;20445;-68
2022/05/29 09:20:09;;;;;;;5.18;1.55;;;;;;;13.09;100.00;101654.69;5278983;28;20026;-68
2022/05/29 09:22:44;;;;;;;3.45;1.25;;;;;;;13.01;100.00;101649.31;5284324;28;20023;-68
2022/05/29 09:25:26;;;;;;;5.50;1.60;;;;;;;12.96;100.00;101645.25;5284087;28;20084;-68
2022/05/29 09:28:01;;;;;;;6.13;1.35;;;;;;;12.83;100.00;101650.22;5281736;28;20027;-68
2022/05/29 09:30:32;;;;;;;3.10;1.75;;;;;;;12.85;100.00;101640.16;5273396;28;20116;-68
2022/05/29 09:33:12;;;;;;;3.35;1.10;;;;;;;13.01;100.00;101646.63;5274386;28;20483;-68
2022/05/29 09:36:19;;;;;;;2.55;1.10;;;;;;;13.34;100.00;101650.25;5282865;28;20032;-68
2022/05/29 09:38:52;;;;;;;;;;;;;;;14.03;100.00;101646.28;5283910;28;20070;-68
2022/05/29 09:41:31;;;;;;;3.83;1.77;;;;;;;15.28;100.00;101648.28;5282971;28;19908;-68
2022/05/29 09:44:21;;;;;;;2.83;1.58;;;;;;;16.33;100.00;101639.56;5271242;28;20028;-68
2022/05/29 09:46:52;;;;;;;4.72;1.20;;;;;;;16.52;100.00;101649.03;5283113;28;20511;-68
2022/05/29 09:49:45;;;;;;;1.13;0.85;;;;;;;16.65;100.00;101635.66;5283549;28;20220;-68
2022/05/29 09:52:35;;;;;;;2.63;1.02;;;;;;;17.32;100.00;101638.22;5284239;28;20050;-69
2022/05/29 09:55:26;;;;;;;2.15;1.00;;;;;;;17.61;100.00;101639.97;5284623;28;20084;-69
2022/05/29 09:58:00;;;;;;;3.50;1.17;;;;;;;17.56;100.00;101622.59;5288610;28;20099;-68
2022/05/29 10:00:36;;;;;;;2.67;1.10;;;;;;;17.88;100.00;101626.69;5285061;28;20016;-69
2022/05/29 10:03:09;;;;;;;2.90;1.08;;;;;;;17.75;100.00;101629.28;5279071;28;20019;-69
2022/05/29 10:05:41;;;;;;;4.32;1.73;;;;;;;17.38;100.00;101625.75;5282565;28;20444;-68
2022/05/29 10:08:31;;;;;;;3.65;1.75;;;;;;;16.93;100.00;101621.47;5280589;28;20103;-69
2022/05/29 10:11:22;;;;;;;3.55;1.10;;;;;;;16.48;100.00;101626.88;5288124;28;20027;-69
2022/05/29 10:13:53;;;;;;;4.18;1.35;;;;;;;16.17;100.00;101620.78;5281163;28;20035;-69
2022/05/29 10:16:42;;;;;;;3.05;1.20;;;;;;;15.79;100.00;101618.06;5274942;28;20729;-69
2022/05/29 10:19:30;;;;;;;4.05;1.30;;;;;;;15.57;100.00;101619.72;5277630;28;20442;-69
2022/05/29 10:22:02;;;;;;;1.98;1.00;;;;;;;15.33;100.00;101622.59;5287879;28;20020;-68
2022/05/29 10:27:36;;;;;;;6.85;1.48;;;;;;;14.68;100.00;101621.06;5277737;28;20322;-68
2022/05/29 10:30:10;;;;;;;2.97;1.35;;;;;;;14.62;100.00;101614.50;5272932;28;20024;-68
2022/05/29 10:32:42;;;;;;;4.72;1.50;;;;;;;14.77;100.00;101611.91;5287664;27;20430;-69
2022/05/29 10:35:35;;;;;;;3.50;1.30;;;;;;;14.70;100.00;101605.50;5287318;28;20047;-68
2022/05/29 10:38:25;;;;;;;5.35;1.20;;;;;;;14.78;100.00;101610.88;5287764;28;20035;-69
2022/05/29 10:40:59;;;;;;;4.25;1.35;;;;;;;14.75;100.00;101611.22;5274501;28;20028;-68
2022/05/29 10:43:47;;;;;;;2.03;1.20;;;;;;;14.68;100.00;101611.09;5288019;27;20031;-68
2022/05/29 10:46:21;;;;;;;3.03;1.20;;;;;;;14.58;100.00;101620.41;5281314;28;20035;-68
2022/05/29 10:49:27;;;;;;;3.37;1.30;;;;;;;14.53;100.00;101617.41;5281509;28;20062;-68
2022/05/29 10:52:16;;;;;;;5.32;1.48;;;;;;;14.46;100.00;101615.38;5288663;28;20274;-68
2022/05/29 10:54:48;;;;;;;6.93;1.70;;;;;;;14.71;100.00;101612.63;5276164;28;20035;-68
2022/05/29 10:57:36;;;;;;;5.15;1.45;;;;;;;14.97;100.00;101606.94;5288377;28;20077;-69
2022/05/29 11:00:23;;;;;;;3.85;1.20;;;;;;;15.04;100.00;101602.47;5287974;28;20057;-69
2022/05/29 11:06:16;;;;;;;4.03;0.98;;;;;;;14.03;100.00;101610.38;5281836;28;20031;-68
2022/05/29 11:09:21;;;;;;;3.28;1.40;;;;;;;13.39;100.00;101602.94;5285267;28;20027;-68
2022/05/29 11:12:01;;;;;;;3.00;1.45;;;;;;;12.96;100.00;101607.53;5286250;28;20097;-68
2022/05/29 11:15:09;;;;;;;2.13;1.02;;;;;;;12.59;100.00;101612.41;5277464;28;20027;-68
2022/05/29 11:17:51;;;;;;;0.93;0.60;;;;;;;12.50;100.00;101603.47;5271858;28;20031;-68
2022/05/29 11:20:59;;;;;;;2.53;0.80;;;;;;;12.75;100.00;101603.56;5280634;28;20024;-68
2022/05/29 11:23:58;;;;;;;1.58;0.60;;;;;;;13.13;100.00;101602.19;5271739;28;20027;-68
2022/05/29 11:26:54;;;;;;;2.17;0.80;;;;;;;13.57;100.00;101596.56;5287747;28;20019;-68
2022/05/29 11:29:50;;;;;;;1.95;0.50;;;;;;;13.84;100.00;101587.28;5287514;28;20032;-68
2022/05/29 11:32:34;;;;;;;1.48;0.70;;;;;;;14.14;100.00;101591.97;5287702;27;20496;-68
2022/05/29 11:35:28;;;;;;;1.92;0.80;;;;;;;14.37;100.00;101584.00;5274209;28;20469;-68
2022/05/29 11:38:17;;;;;;;4.38;1.20;;;;;;;14.77;100.00;101577.63;5287571;28;20039;-68
2022/05/29 11:40:54;;;;;;;7.25;1.08;;;;;;;14.88;100.00;101575.56;5287555;28;20106;-68
2022/05/29 11:43:33;;;;;;;5.78;1.27;;;;;;;15.22;100.00;101572.50;5287952;28;20414;-68
2022/05/29 11:52:43;;;;;;;5.07;1.05;;;;;;;15.77;100.00;101564.16;5286982;27;20505;-68
2022/05/29 11:55:18;;;;;;;5.72;0.95;;;;;;;15.64;100.00;101558.50;5272936;28;20033;-68
2022/05/29 11:58:11;;;;;;;2.35;0.93;;;;;;;15.41;100.00;101550.41;5273793;28;20067;-68
2022/05/29 12:00:46;;;;;;;2.38;0.88;;;;;;;15.47;100.00;101549.66;5282751;28;20024;-68
2022/05/29 12:03:43;;;;;;;3.35;0.85;;;;;;;15.61;100.00;101550.72;5278480;28;20033;-68
2022/05/29 12:06:34;;;;;;;4.55;0.90;;;;;;;15.62;100.00;101530.78;5286891;28;20488;-68
2022/05/29 12:09:23;;;;;;;4.00;0.88;;;;;;;15.23;100.00;101542.56;5273609;28;20112;-68
2022/05/29 12:12:02;;;;;;;3.72;1.20;;;;;;;15.28;100.00;101550.97;5273332;28;20027;-68
2022/05/29 12:14:39;;;;;;;2.88;0.95;;;;;;;15.19;100.00;101549.34;5286551;28;20473;-68
2022/05/29 12:17:18;;;;;;;2.53;0.85;;;;;;;15.37;100.00;101538.25;5280821;28;20034;-68
2022/05/29 12:19:54;;;;;;;4.57;0.88;;;;;;;16.16;100.00;101529.75;5284107;28;20103;-69
2022/05/29 12:22:31;;;;;;;6.18;1.00;;;;;;;16.77;100.00;101533.94;5265734;28;20032;-69
2022/05/29 12:25:06;;;;;;;3.15;0.90;;;;;;;16.67;100.00;101532.53;5264049;28;20423;-68
2022/05/29 12:27:37;;;;;;;4.55;0.80;;;;;;;16.45;100.00;101534.31;5269506;28;20039;-68
2022/05/29 12:30:20;;;;;;;2.55;0.80;;;;;;;16.26;100.00;101533.00;5264991;28;20020;-69
2022/05/29 12:32:51;;;;;;;1.85;0.80;;;;;;;16.46;100.00;101527.88;5269600;28;20485;-69